sensor_id;sensor_type;location;lat;lon;timestamp;P1;durP1;ratioP1;P2;durP2;ratioP2
83055;SDS011;72881;43.514;1.510;2024-03-23T00:54:13;6.45;;;3.08;;
83055;SDS011;72881;43.514;1.510;2024-03-23T00:56:39;5.25;;;2.80;;
83055;SDS011;72881;43.514;1.510;2024-03-23T00:59:04;6.50;;;2.72;;
83055;SDS011;72881;43.514;1.510;2024-03-23T01:01:30;6.68;;;2.83;;
83055;SDS011;72881;43.514;1.510;2024-03-23T01:03:55;5.25;;;2.70;;
83055;SDS011;72881;43.514;1.510;2024-03-23T01:06:21;4.40;;;2.55;;
83055;SDS011;72881;43.514;1.510;2024-03-23T01:08:47;4.68;;;2.60;;
83055;SDS011;72881;43.514;1.510;2024-03-23T01:11:12;4.82;;;2.60;;
83055;SDS011;72881;43.514;1.510;2024-03-23T01:13:38;3.97;;;2.60;;
83055;SDS011;72881;43.514;1.510;2024-03-23T01:16:04;4.90;;;2.70;;
83055;SDS011;72881;43.514;1.510;2024-03-23T01:18:29;5.05;;;2.38;;
83055;SDS011;72881;43.514;1.510;2024-03-23T01:20:55;5.10;;;2.67;;
83055;SDS011;72881;43.514;1.510;2024-03-23T01:23:21;3.95;;;2.40;;
83055;SDS011;72881;43.514;1.510;2024-03-23T01:25:52;4.82;;;2.83;;
83055;SDS011;72881;43.514;1.510;2024-03-23T01:28:19;6.40;;;2.70;;
83055;SDS011;72881;43.514;1.510;2024-03-23T01:30:45;5.60;;;2.75;;
83055;SDS011;72881;43.514;1.510;2024-03-23T01:33:11;4.78;;;2.33;;
83055;SDS011;72881;43.514;1.510;2024-03-23T01:35:37;6.22;;;2.55;;
83055;SDS011;72881;43.514;1.510;2024-03-23T01:38:03;5.03;;;2.70;;
83055;SDS011;72881;43.514;1.510;2024-03-23T01:40:28;4.30;;;2.35;;
83055;SDS011;72881;43.514;1.510;2024-03-23T01:43:04;4.15;;;2.40;;
83055;SDS011;72881;43.514;1.510;2024-03-23T01:45:31;4.85;;;2.83;;
83055;SDS011;72881;43.514;1.510;2024-03-23T01:47:57;4.75;;;2.22;;
83055;SDS011;72881;43.514;1.510;2024-03-23T01:50:22;4.60;;;2.70;;
83055;SDS011;72881;43.514;1.510;2024-03-23T01:52:51;5.10;;;2.42;;
83055;SDS011;72881;43.514;1.510;2024-03-23T01:55:17;3.53;;;2.55;;
83055;SDS011;72881;43.514;1.510;2024-03-23T01:57:42;4.85;;;2.75;;
83055;SDS011;72881;43.514;1.510;2024-03-23T02:00:08;4.10;;;2.40;;
83055;SDS011;72881;43.514;1.510;2024-03-23T02:02:41;4.05;;;2.38;;
83055;SDS011;72881;43.514;1.510;2024-03-23T02:05:10;3.65;;;2.22;;
83055;SDS011;72881;43.514;1.510;2024-03-23T02:07:37;4.88;;;2.55;;
83055;SDS011;72881;43.514;1.510;2024-03-23T02:10:09;5.72;;;2.60;;
83055;SDS011;72881;43.514;1.510;2024-03-23T02:12:35;3.88;;;2.30;;
83055;SDS011;72881;43.514;1.510;2024-03-23T02:15:01;3.95;;;2.30;;
83055;SDS011;72881;43.514;1.510;2024-03-23T02:17:27;4.25;;;2.33;;
83055;SDS011;72881;43.514;1.510;2024-03-23T02:19:54;5.50;;;2.50;;
83055;SDS011;72881;43.514;1.510;2024-03-23T02:22:19;5.00;;;2.47;;
83055;SDS011;72881;43.514;1.510;2024-03-23T02:24:45;4.85;;;2.47;;
83055;SDS011;72881;43.514;1.510;2024-03-23T02:27:11;5.32;;;2.70;;
83055;SDS011;72881;43.514;1.510;2024-03-23T02:29:36;5.00;;;2.38;;
83055;SDS011;72881;43.514;1.510;2024-03-23T02:32:02;4.43;;;2.55;;
83055;SDS011;72881;43.514;1.510;2024-03-23T02:34:28;3.88;;;2.33;;
83055;SDS011;72881;43.514;1.510;2024-03-23T02:36:53;3.20;;;2.35;;
83055;SDS011;72881;43.514;1.510;2024-03-23T02:39:19;4.22;;;2.40;;
83055;SDS011;72881;43.514;1.510;2024-03-23T02:41:44;5.72;;;2.58;;
83055;SDS011;72881;43.514;1.510;2024-03-23T02:44:10;3.85;;;2.35;;
83055;SDS011;72881;43.514;1.510;2024-03-23T02:46:37;4.00;;;2.28;;
83055;SDS011;72881;43.514;1.510;2024-03-23T02:49:03;2.97;;;2.30;;
83055;SDS011;72881;43.514;1.510;2024-03-23T02:51:29;4.90;;;2.50;;
83055;SDS011;72881;43.514;1.510;2024-03-23T02:53:55;3.47;;;2.25;;
83055;SDS011;72881;43.514;1.510;2024-03-23T02:56:21;3.35;;;1.90;;
83055;SDS011;72881;43.514;1.510;2024-03-23T02:58:47;4.45;;;2.50;;
83055;SDS011;72881;43.514;1.510;2024-03-23T03:01:12;3.13;;;2.20;;
83055;SDS011;72881;43.514;1.510;2024-03-23T03:03:38;3.63;;;2.22;;
83055;SDS011;72881;43.514;1.510;2024-03-23T03:06:03;3.45;;;2.10;;
83055;SDS011;72881;43.514;1.510;2024-03-23T03:08:29;3.05;;;2.10;;
83055;SDS011;72881;43.514;1.510;2024-03-23T03:10:55;3.85;;;2.35;;
83055;SDS011;72881;43.514;1.510;2024-03-23T03:13:20;4.35;;;2.10;;
83055;SDS011;72881;43.514;1.510;2024-03-23T03:15:46;3.78;;;2.33;;
83055;SDS011;72881;43.514;1.510;2024-03-23T03:18:12;3.58;;;2.00;;
83055;SDS011;72881;43.514;1.510;2024-03-23T03:20:40;5.18;;;2.38;;
83055;SDS011;72881;43.514;1.510;2024-03-23T03:23:06;2.75;;;1.88;;
83055;SDS011;72881;43.514;1.510;2024-03-23T03:25:32;4.63;;;2.22;;
83055;SDS011;72881;43.514;1.510;2024-03-23T03:27:58;3.55;;;2.10;;
83055;SDS011;72881;43.514;1.510;2024-03-23T03:30:24;4.28;;;2.03;;
83055;SDS011;72881;43.514;1.510;2024-03-23T03:32:52;3.70;;;2.08;;
83055;SDS011;72881;43.514;1.510;2024-03-23T03:35:18;2.60;;;2.05;;
83055;SDS011;72881;43.514;1.510;2024-03-23T03:37:44;3.80;;;2.20;;
83055;SDS011;72881;43.514;1.510;2024-03-23T03:40:10;2.90;;;1.77;;
83055;SDS011;72881;43.514;1.510;2024-03-23T03:42:36;3.22;;;2.00;;
83055;SDS011;72881;43.514;1.510;2024-03-23T03:45:02;3.25;;;1.98;;
83055;SDS011;72881;43.514;1.510;2024-03-23T03:47:29;3.78;;;2.05;;
83055;SDS011;72881;43.514;1.510;2024-03-23T03:49:55;3.33;;;1.90;;
83055;SDS011;72881;43.514;1.510;2024-03-23T03:52:21;2.47;;;1.83;;
83055;SDS011;72881;43.514;1.510;2024-03-23T03:54:46;3.50;;;1.88;;
83055;SDS011;72881;43.514;1.510;2024-03-23T03:57:12;4.00;;;2.08;;
83055;SDS011;72881;43.514;1.510;2024-03-23T03:59:38;2.15;;;1.80;;
83055;SDS011;72881;43.514;1.510;2024-03-23T04:02:03;3.33;;;1.80;;
83055;SDS011;72881;43.514;1.510;2024-03-23T04:04:29;3.13;;;1.92;;
83055;SDS011;72881;43.514;1.510;2024-03-23T04:06:58;3.42;;;1.90;;
83055;SDS011;72881;43.514;1.510;2024-03-23T04:09:27;2.95;;;1.60;;
83055;SDS011;72881;43.514;1.510;2024-03-23T04:11:52;4.47;;;2.10;;
83055;SDS011;72881;43.514;1.510;2024-03-23T04:14:18;3.10;;;1.80;;
83055;SDS011;72881;43.514;1.510;2024-03-23T04:16:44;3.25;;;1.65;;
83055;SDS011;72881;43.514;1.510;2024-03-23T04:19:09;3.58;;;1.80;;
83055;SDS011;72881;43.514;1.510;2024-03-23T04:21:35;2.60;;;1.73;;
83055;SDS011;72881;43.514;1.510;2024-03-23T04:24:02;5.07;;;1.67;;
83055;SDS011;72881;43.514;1.510;2024-03-23T04:26:28;3.10;;;1.52;;
83055;SDS011;72881;43.514;1.510;2024-03-23T04:28:53;2.90;;;1.60;;
83055;SDS011;72881;43.514;1.510;2024-03-23T04:31:19;2.92;;;1.85;;
83055;SDS011;72881;43.514;1.510;2024-03-23T04:33:45;3.20;;;1.77;;
83055;SDS011;72881;43.514;1.510;2024-03-23T04:36:10;2.58;;;1.70;;
83055;SDS011;72881;43.514;1.510;2024-03-23T04:38:36;3.65;;;1.73;;
83055;SDS011;72881;43.514;1.510;2024-03-23T04:41:02;2.70;;;1.60;;
83055;SDS011;72881;43.514;1.510;2024-03-23T04:43:27;3.33;;;1.67;;
83055;SDS011;72881;43.514;1.510;2024-03-23T04:45:53;3.92;;;1.90;;
83055;SDS011;72881;43.514;1.510;2024-03-23T04:48:22;2.38;;;1.42;;
83055;SDS011;72881;43.514;1.510;2024-03-23T04:50:48;2.90;;;1.80;;
83055;SDS011;72881;43.514;1.510;2024-03-23T04:53:15;2.60;;;1.63;;
83055;SDS011;72881;43.514;1.510;2024-03-23T04:55:42;2.40;;;1.60;;
83055;SDS011;72881;43.514;1.510;2024-03-23T04:58:07;2.90;;;1.60;;
83055;SDS011;72881;43.514;1.510;2024-03-23T05:00:33;3.20;;;1.63;;
83055;SDS011;72881;43.514;1.510;2024-03-23T05:02:59;2.55;;;1.63;;
83055;SDS011;72881;43.514;1.510;2024-03-23T05:05:24;3.25;;;1.52;;
83055;SDS011;72881;43.514;1.510;2024-03-23T05:07:50;4.40;;;1.85;;
83055;SDS011;72881;43.514;1.510;2024-03-23T05:10:16;2.97;;;1.30;;
83055;SDS011;72881;43.514;1.510;2024-03-23T05:12:41;2.72;;;1.27;;
83055;SDS011;72881;43.514;1.510;2024-03-23T05:15:07;2.50;;;1.55;;
83055;SDS011;72881;43.514;1.510;2024-03-23T05:17:33;3.10;;;1.58;;
83055;SDS011;72881;43.514;1.510;2024-03-23T05:19:59;3.30;;;1.58;;
83055;SDS011;72881;43.514;1.510;2024-03-23T05:22:24;2.00;;;1.50;;
83055;SDS011;72881;43.514;1.510;2024-03-23T05:24:50;2.85;;;1.40;;
83055;SDS011;72881;43.514;1.510;2024-03-23T05:27:16;2.88;;;1.52;;
83055;SDS011;72881;43.514;1.510;2024-03-23T05:29:41;4.43;;;1.40;;
83055;SDS011;72881;43.514;1.510;2024-03-23T05:32:07;3.60;;;1.70;;
83055;SDS011;72881;43.514;1.510;2024-03-23T05:34:33;2.67;;;1.40;;
83055;SDS011;72881;43.514;1.510;2024-03-23T05:36:58;2.13;;;1.40;;
83055;SDS011;72881;43.514;1.510;2024-03-23T05:39:24;2.53;;;1.30;;
83055;SDS011;72881;43.514;1.510;2024-03-23T05:41:50;2.58;;;1.27;;
83055;SDS011;72881;43.514;1.510;2024-03-23T05:44:16;2.58;;;1.33;;
83055;SDS011;72881;43.514;1.510;2024-03-23T05:46:41;3.28;;;1.45;;
83055;SDS011;72881;43.514;1.510;2024-03-23T05:49:08;1.85;;;1.30;;
83055;SDS011;72881;43.514;1.510;2024-03-23T05:51:34;2.58;;;1.30;;
83055;SDS011;72881;43.514;1.510;2024-03-23T05:53:59;4.10;;;1.63;;
83055;SDS011;72881;43.514;1.510;2024-03-23T05:56:26;4.82;;;1.40;;
83055;SDS011;72881;43.514;1.510;2024-03-23T05:58:52;2.85;;;1.35;;
83055;SDS011;72881;43.514;1.510;2024-03-23T06:01:18;3.15;;;1.60;;
83055;SDS011;72881;43.514;1.510;2024-03-23T06:03:43;2.20;;;1.15;;
83055;SDS011;72881;43.514;1.510;2024-03-23T06:06:09;2.83;;;1.40;;
83055;SDS011;72881;43.514;1.510;2024-03-23T06:08:37;2.75;;;1.40;;
83055;SDS011;72881;43.514;1.510;2024-03-23T06:11:04;2.35;;;1.50;;
83055;SDS011;72881;43.514;1.510;2024-03-23T06:13:31;3.67;;;1.40;;
83055;SDS011;72881;43.514;1.510;2024-03-23T06:15:57;2.88;;;1.15;;
83055;SDS011;72881;43.514;1.510;2024-03-23T06:18:23;3.60;;;1.48;;
83055;SDS011;72881;43.514;1.510;2024-03-23T06:20:49;2.47;;;1.30;;
83055;SDS011;72881;43.514;1.510;2024-03-23T06:23:15;2.47;;;1.30;;
83055;SDS011;72881;43.514;1.510;2024-03-23T06:25:42;2.17;;;1.30;;
83055;SDS011;72881;43.514;1.510;2024-03-23T06:28:08;2.75;;;1.40;;
83055;SDS011;72881;43.514;1.510;2024-03-23T06:30:34;1.80;;;1.20;;
83055;SDS011;72881;43.514;1.510;2024-03-23T06:32:59;2.90;;;1.85;;
83055;SDS011;72881;43.514;1.510;2024-03-23T06:35:25;3.13;;;1.45;;
83055;SDS011;72881;43.514;1.510;2024-03-23T06:37:50;2.42;;;1.20;;
83055;SDS011;72881;43.514;1.510;2024-03-23T06:40:16;2.58;;;1.20;;
83055;SDS011;72881;43.514;1.510;2024-03-23T06:42:41;2.35;;;1.10;;
83055;SDS011;72881;43.514;1.510;2024-03-23T06:45:07;2.10;;;1.10;;
83055;SDS011;72881;43.514;1.510;2024-03-23T06:47:33;2.08;;;1.20;;
83055;SDS011;72881;43.514;1.510;2024-03-23T06:49:59;4.28;;;1.50;;
83055;SDS011;72881;43.514;1.510;2024-03-23T06:52:28;2.35;;;1.15;;
83055;SDS011;72881;43.514;1.510;2024-03-23T06:54:54;2.47;;;1.05;;
83055;SDS011;72881;43.514;1.510;2024-03-23T06:57:19;2.92;;;1.30;;
83055;SDS011;72881;43.514;1.510;2024-03-23T06:59:45;2.75;;;1.17;;
83055;SDS011;72881;43.514;1.510;2024-03-23T07:02:11;3.20;;;1.20;;
83055;SDS011;72881;43.514;1.510;2024-03-23T07:04:36;2.22;;;1.15;;
83055;SDS011;72881;43.514;1.510;2024-03-23T07:07:04;3.13;;;1.08;;
83055;SDS011;72881;43.514;1.510;2024-03-23T07:09:30;2.83;;;1.20;;
83055;SDS011;72881;43.514;1.510;2024-03-23T07:11:58;2.30;;;1.15;;
83055;SDS011;72881;43.514;1.510;2024-03-23T07:14:24;2.03;;;1.10;;
83055;SDS011;72881;43.514;1.510;2024-03-23T07:16:50;1.75;;;1.00;;
83055;SDS011;72881;43.514;1.510;2024-03-23T07:19:16;2.15;;;1.08;;
83055;SDS011;72881;43.514;1.510;2024-03-23T07:21:42;2.40;;;1.20;;
83055;SDS011;72881;43.514;1.510;2024-03-23T07:24:08;3.55;;;1.30;;
83055;SDS011;72881;43.514;1.510;2024-03-23T07:26:34;2.40;;;1.20;;
83055;SDS011;72881;43.514;1.510;2024-03-23T07:29:00;1.95;;;0.93;;
83055;SDS011;72881;43.514;1.510;2024-03-23T07:31:26;3.20;;;1.38;;
83055;SDS011;72881;43.514;1.510;2024-03-23T07:33:51;3.22;;;1.35;;
83055;SDS011;72881;43.514;1.510;2024-03-23T07:36:17;2.65;;;1.00;;
83055;SDS011;72881;43.514;1.510;2024-03-23T07:38:43;1.75;;;0.98;;
83055;SDS011;72881;43.514;1.510;2024-03-23T07:41:14;2.97;;;0.90;;
83055;SDS011;72881;43.514;1.510;2024-03-23T07:43:42;2.35;;;1.00;;
83055;SDS011;72881;43.514;1.510;2024-03-23T07:46:08;1.92;;;1.10;;
83055;SDS011;72881;43.514;1.510;2024-03-23T07:48:34;2.10;;;1.02;;
83055;SDS011;72881;43.514;1.510;2024-03-23T07:53:33;2.30;;;1.25;;
83055;SDS011;72881;43.514;1.510;2024-03-23T07:56:04;1.90;;;1.00;;
83055;SDS011;72881;43.514;1.510;2024-03-23T07:58:31;1.85;;;1.00;;
83055;SDS011;72881;43.514;1.510;2024-03-23T08:01:03;2.88;;;1.25;;
83055;SDS011;72881;43.514;1.510;2024-03-23T08:03:30;3.47;;;1.20;;
83055;SDS011;72881;43.514;1.510;2024-03-23T08:05:56;3.10;;;1.05;;
83055;SDS011;72881;43.514;1.510;2024-03-23T08:08:21;1.95;;;0.98;;
83055;SDS011;72881;43.514;1.510;2024-03-23T08:10:50;1.55;;;0.80;;
83055;SDS011;72881;43.514;1.510;2024-03-23T08:13:17;2.30;;;0.82;;
83055;SDS011;72881;43.514;1.510;2024-03-23T08:15:43;2.05;;;1.00;;
83055;SDS011;72881;43.514;1.510;2024-03-23T08:18:09;2.08;;;0.80;;
83055;SDS011;72881;43.514;1.510;2024-03-23T08:20:36;1.85;;;0.90;;
83055;SDS011;72881;43.514;1.510;2024-03-23T08:23:02;2.10;;;1.02;;
83055;SDS011;72881;43.514;1.510;2024-03-23T08:25:30;2.92;;;0.75;;
83055;SDS011;72881;43.514;1.510;2024-03-23T08:27:57;1.60;;;0.73;;
83055;SDS011;72881;43.514;1.510;2024-03-23T08:30:22;2.25;;;1.00;;
83055;SDS011;72881;43.514;1.510;2024-03-23T08:32:48;2.53;;;1.10;;
83055;SDS011;72881;43.514;1.510;2024-03-23T08:35:13;1.63;;;0.90;;
83055;SDS011;72881;43.514;1.510;2024-03-23T08:37:39;1.95;;;0.90;;
83055;SDS011;72881;43.514;1.510;2024-03-23T08:40:05;2.10;;;1.00;;
83055;SDS011;72881;43.514;1.510;2024-03-23T08:42:31;2.45;;;0.90;;
83055;SDS011;72881;43.514;1.510;2024-03-23T08:44:57;1.77;;;0.80;;
83055;SDS011;72881;43.514;1.510;2024-03-23T08:47:22;2.47;;;0.88;;
83055;SDS011;72881;43.514;1.510;2024-03-23T08:49:48;1.63;;;0.80;;
83055;SDS011;72881;43.514;1.510;2024-03-23T08:52:14;1.52;;;0.73;;
83055;SDS011;72881;43.514;1.510;2024-03-23T08:54:40;2.13;;;0.90;;
83055;SDS011;72881;43.514;1.510;2024-03-23T08:57:05;1.60;;;0.65;;
83055;SDS011;72881;43.514;1.510;2024-03-23T08:59:32;1.67;;;0.75;;
83055;SDS011;72881;43.514;1.510;2024-03-23T09:01:58;2.38;;;0.85;;
83055;SDS011;72881;43.514;1.510;2024-03-23T09:04:23;2.55;;;1.17;;
83055;SDS011;72881;43.514;1.510;2024-03-23T09:06:49;1.65;;;0.70;;
83055;SDS011;72881;43.514;1.510;2024-03-23T09:09:15;1.45;;;0.80;;
83055;SDS011;72881;43.514;1.510;2024-03-23T09:11:40;1.98;;;0.80;;
83055;SDS011;72881;43.514;1.510;2024-03-23T09:14:06;1.90;;;0.80;;
83055;SDS011;72881;43.514;1.510;2024-03-23T09:16:32;2.30;;;0.82;;
83055;SDS011;72881;43.514;1.510;2024-03-23T09:18:57;1.25;;;0.60;;
83055;SDS011;72881;43.514;1.510;2024-03-23T09:21:23;1.60;;;0.90;;
83055;SDS011;72881;43.514;1.510;2024-03-23T09:23:48;1.73;;;0.70;;
83055;SDS011;72881;43.514;1.510;2024-03-23T09:26:14;2.13;;;0.77;;
83055;SDS011;72881;43.514;1.510;2024-03-23T09:28:40;1.52;;;0.75;;
83055;SDS011;72881;43.514;1.510;2024-03-23T09:31:06;1.65;;;0.73;;
83055;SDS011;72881;43.514;1.510;2024-03-23T09:33:33;2.10;;;1.00;;
83055;SDS011;72881;43.514;1.510;2024-03-23T09:36:02;1.67;;;0.73;;
83055;SDS011;72881;43.514;1.510;2024-03-23T09:38:28;1.70;;;0.70;;
83055;SDS011;72881;43.514;1.510;2024-03-23T09:40:54;2.55;;;0.80;;
83055;SDS011;72881;43.514;1.510;2024-03-23T09:43:20;1.25;;;0.70;;
83055;SDS011;72881;43.514;1.510;2024-03-23T09:45:45;1.75;;;0.60;;
83055;SDS011;72881;43.514;1.510;2024-03-23T09:48:12;1.88;;;0.70;;
83055;SDS011;72881;43.514;1.510;2024-03-23T09:50:38;1.60;;;0.80;;
83055;SDS011;72881;43.514;1.510;2024-03-23T09:53:07;2.42;;;0.90;;
83055;SDS011;72881;43.514;1.510;2024-03-23T09:55:35;1.58;;;0.63;;
83055;SDS011;72881;43.514;1.510;2024-03-23T09:58:01;1.45;;;0.50;;
83055;SDS011;72881;43.514;1.510;2024-03-23T10:00:27;2.78;;;0.90;;
83055;SDS011;72881;43.514;1.510;2024-03-23T10:02:56;1.58;;;0.60;;
83055;SDS011;72881;43.514;1.510;2024-03-23T10:05:26;1.92;;;0.60;;
83055;SDS011;72881;43.514;1.510;2024-03-23T10:07:52;1.70;;;0.60;;
83055;SDS011;72881;43.514;1.510;2024-03-23T10:10:18;2.33;;;0.82;;
83055;SDS011;72881;43.514;1.510;2024-03-23T10:12:45;2.20;;;0.80;;
83055;SDS011;72881;43.514;1.510;2024-03-23T10:15:26;2.22;;;0.90;;
83055;SDS011;72881;43.514;1.510;2024-03-23T10:17:51;2.90;;;0.60;;
83055;SDS011;72881;43.514;1.510;2024-03-23T10:20:20;2.28;;;0.82;;
83055;SDS011;72881;43.514;1.510;2024-03-23T10:22:50;2.80;;;0.80;;
83055;SDS011;72881;43.514;1.510;2024-03-23T10:25:22;1.58;;;0.70;;
83055;SDS011;72881;43.514;1.510;2024-03-23T10:28:00;2.13;;;0.85;;
83055;SDS011;72881;43.514;1.510;2024-03-23T10:30:26;1.45;;;0.70;;
83055;SDS011;72881;43.514;1.510;2024-03-23T10:33:14;2.05;;;0.70;;
83055;SDS011;72881;43.514;1.510;2024-03-23T10:35:39;1.58;;;0.60;;
83055;SDS011;72881;43.514;1.510;2024-03-23T10:38:05;1.80;;;0.70;;
83055;SDS011;72881;43.514;1.510;2024-03-23T10:40:34;2.90;;;0.75;;
83055;SDS011;72881;43.514;1.510;2024-03-23T10:43:00;1.55;;;0.70;;
83055;SDS011;72881;43.514;1.510;2024-03-23T10:45:26;4.43;;;1.05;;
83055;SDS011;72881;43.514;1.510;2024-03-23T10:47:52;1.95;;;0.80;;
83055;SDS011;72881;43.514;1.510;2024-03-23T10:50:17;2.78;;;0.70;;
83055;SDS011;72881;43.514;1.510;2024-03-23T10:52:45;2.05;;;0.60;;
83055;SDS011;72881;43.514;1.510;2024-03-23T10:55:11;2.13;;;0.80;;
83055;SDS011;72881;43.514;1.510;2024-03-23T10:57:48;2.22;;;0.70;;
83055;SDS011;72881;43.514;1.510;2024-03-23T11:00:16;2.28;;;0.60;;
83055;SDS011;72881;43.514;1.510;2024-03-23T11:02:42;1.52;;;0.50;;
83055;SDS011;72881;43.514;1.510;2024-03-23T11:08:11;3.45;;;0.88;;
83055;SDS011;72881;43.514;1.510;2024-03-23T11:11:10;3.10;;;0.60;;
83055;SDS011;72881;43.514;1.510;2024-03-23T11:13:37;1.90;;;0.60;;
83055;SDS011;72881;43.514;1.510;2024-03-23T11:16:13;3.00;;;0.80;;
83055;SDS011;72881;43.514;1.510;2024-03-23T11:18:39;2.40;;;0.80;;
83055;SDS011;72881;43.514;1.510;2024-03-23T11:21:06;2.00;;;0.63;;
83055;SDS011;72881;43.514;1.510;2024-03-23T11:23:32;2.67;;;0.60;;
83055;SDS011;72881;43.514;1.510;2024-03-23T11:25:58;1.30;;;0.60;;
83055;SDS011;72881;43.514;1.510;2024-03-23T11:28:23;2.53;;;0.70;;
83055;SDS011;72881;43.514;1.510;2024-03-23T11:30:49;2.33;;;0.80;;
83055;SDS011;72881;43.514;1.510;2024-03-23T11:33:14;3.30;;;0.82;;
83055;SDS011;72881;43.514;1.510;2024-03-23T11:35:41;3.72;;;1.00;;
83055;SDS011;72881;43.514;1.510;2024-03-23T11:38:10;1.60;;;0.70;;
83055;SDS011;72881;43.514;1.510;2024-03-23T11:40:37;3.33;;;0.80;;
83055;SDS011;72881;43.514;1.510;2024-03-23T11:43:05;3.80;;;0.63;;
83055;SDS011;72881;43.514;1.510;2024-03-23T11:45:39;1.40;;;0.50;;
83055;SDS011;72881;43.514;1.510;2024-03-23T11:48:11;1.92;;;0.60;;
83055;SDS011;72881;43.514;1.510;2024-03-23T11:50:41;2.20;;;0.80;;
83055;SDS011;72881;43.514;1.510;2024-03-23T11:58:15;1.85;;;0.70;;
83055;SDS011;72881;43.514;1.510;2024-03-23T12:00:41;2.22;;;0.60;;
83055;SDS011;72881;43.514;1.510;2024-03-23T12:03:07;1.95;;;0.60;;
83055;SDS011;72881;43.514;1.510;2024-03-23T12:05:33;2.25;;;0.70;;
83055;SDS011;72881;43.514;1.510;2024-03-23T12:11:16;2.45;;;0.80;;
83055;SDS011;72881;43.514;1.510;2024-03-23T12:13:42;2.78;;;0.57;;
83055;SDS011;72881;43.514;1.510;2024-03-23T12:16:12;2.60;;;0.60;;
83055;SDS011;72881;43.514;1.510;2024-03-23T12:18:39;1.85;;;0.60;;
83055;SDS011;72881;43.514;1.510;2024-03-23T12:21:06;2.10;;;0.60;;
83055;SDS011;72881;43.514;1.510;2024-03-23T12:23:32;3.58;;;0.80;;
83055;SDS011;72881;43.514;1.510;2024-03-23T12:25:58;2.17;;;0.70;;
83055;SDS011;72881;43.514;1.510;2024-03-23T12:28:24;2.55;;;0.80;;
83055;SDS011;72881;43.514;1.510;2024-03-23T12:30:50;3.40;;;0.65;;
83055;SDS011;72881;43.514;1.510;2024-03-23T12:33:17;1.95;;;0.60;;
83055;SDS011;72881;43.514;1.510;2024-03-23T12:35:43;2.58;;;0.90;;
83055;SDS011;72881;43.514;1.510;2024-03-23T12:38:08;2.20;;;0.60;;
83055;SDS011;72881;43.514;1.510;2024-03-23T12:40:34;2.17;;;0.60;;
83055;SDS011;72881;43.514;1.510;2024-03-23T12:43:00;2.65;;;0.70;;
83055;SDS011;72881;43.514;1.510;2024-03-23T12:45:25;1.80;;;0.60;;
83055;SDS011;72881;43.514;1.510;2024-03-23T12:47:51;2.92;;;0.63;;
83055;SDS011;72881;43.514;1.510;2024-03-23T12:50:20;2.95;;;0.70;;
83055;SDS011;72881;43.514;1.510;2024-03-23T12:52:46;2.72;;;0.70;;
83055;SDS011;72881;43.514;1.510;2024-03-23T12:55:13;2.55;;;0.60;;
83055;SDS011;72881;43.514;1.510;2024-03-23T12:57:38;1.60;;;0.50;;
83055;SDS011;72881;43.514;1.510;2024-03-23T13:00:05;1.52;;;0.65;;
83055;SDS011;72881;43.514;1.510;2024-03-23T13:02:32;1.58;;;0.43;;
83055;SDS011;72881;43.514;1.510;2024-03-23T13:05:00;1.38;;;0.50;;
83055;SDS011;72881;43.514;1.510;2024-03-23T13:07:25;1.90;;;0.50;;
83055;SDS011;72881;43.514;1.510;2024-03-23T13:09:51;2.33;;;0.45;;
83055;SDS011;72881;43.514;1.510;2024-03-23T13:12:17;2.15;;;0.50;;
83055;SDS011;72881;43.514;1.510;2024-03-23T13:14:46;1.80;;;0.60;;
83055;SDS011;72881;43.514;1.510;2024-03-23T13:17:12;1.23;;;0.40;;
83055;SDS011;72881;43.514;1.510;2024-03-23T13:19:38;1.65;;;0.50;;
83055;SDS011;72881;43.514;1.510;2024-03-23T13:22:03;2.20;;;0.60;;
83055;SDS011;72881;43.514;1.510;2024-03-23T13:24:29;2.15;;;0.60;;
83055;SDS011;72881;43.514;1.510;2024-03-23T13:26:55;1.92;;;0.50;;
83055;SDS011;72881;43.514;1.510;2024-03-23T13:29:22;1.77;;;0.60;;
83055;SDS011;72881;43.514;1.510;2024-03-23T13:31:48;2.00;;;0.47;;
83055;SDS011;72881;43.514;1.510;2024-03-23T13:34:15;3.13;;;0.80;;
83055;SDS011;72881;43.514;1.510;2024-03-23T13:36:44;1.48;;;0.40;;
83055;SDS011;72881;43.514;1.510;2024-03-23T13:39:10;2.10;;;0.60;;
83055;SDS011;72881;43.514;1.510;2024-03-23T13:41:39;1.80;;;0.43;;
83055;SDS011;72881;43.514;1.510;2024-03-23T13:44:13;1.58;;;0.50;;
83055;SDS011;72881;43.514;1.510;2024-03-23T13:46:42;1.98;;;0.63;;
83055;SDS011;72881;43.514;1.510;2024-03-23T13:51:53;1.23;;;0.50;;
83055;SDS011;72881;43.514;1.510;2024-03-23T13:54:25;1.90;;;0.60;;
83055;SDS011;72881;43.514;1.510;2024-03-23T13:56:51;2.40;;;0.60;;
83055;SDS011;72881;43.514;1.510;2024-03-23T13:59:18;1.35;;;0.50;;
83055;SDS011;72881;43.514;1.510;2024-03-23T14:01:44;1.88;;;0.60;;
83055;SDS011;72881;43.514;1.510;2024-03-23T14:04:13;2.70;;;0.50;;
83055;SDS011;72881;43.514;1.510;2024-03-23T14:06:39;1.58;;;0.50;;
83055;SDS011;72881;43.514;1.510;2024-03-23T14:09:05;1.20;;;0.40;;
83055;SDS011;72881;43.514;1.510;2024-03-23T14:11:34;2.03;;;0.40;;
83055;SDS011;72881;43.514;1.510;2024-03-23T14:14:01;3.03;;;0.60;;
83055;SDS011;72881;43.514;1.510;2024-03-23T14:16:28;1.38;;;0.70;;
83055;SDS011;72881;43.514;1.510;2024-03-23T14:18:54;1.08;;;0.38;;
83055;SDS011;72881;43.514;1.510;2024-03-23T14:21:20;2.08;;;0.50;;
83055;SDS011;72881;43.514;1.510;2024-03-23T14:23:46;2.25;;;0.52;;
83055;SDS011;72881;43.514;1.510;2024-03-23T14:26:11;2.45;;;0.50;;
83055;SDS011;72881;43.514;1.510;2024-03-23T14:28:38;2.65;;;0.60;;
83055;SDS011;72881;43.514;1.510;2024-03-23T14:31:04;1.88;;;0.50;;
83055;SDS011;72881;43.514;1.510;2024-03-23T14:33:35;3.42;;;0.73;;
83055;SDS011;72881;43.514;1.510;2024-03-23T14:36:07;1.13;;;0.47;;
83055;SDS011;72881;43.514;1.510;2024-03-23T14:38:33;0.98;;;0.30;;
83055;SDS011;72881;43.514;1.510;2024-03-23T14:40:59;1.27;;;0.50;;
83055;SDS011;72881;43.514;1.510;2024-03-23T14:43:25;1.38;;;0.40;;
83055;SDS011;72881;43.514;1.510;2024-03-23T14:46:13;2.00;;;0.52;;
83055;SDS011;72881;43.514;1.510;2024-03-23T14:48:40;1.35;;;0.40;;
83055;SDS011;72881;43.514;1.510;2024-03-23T14:51:06;1.65;;;0.55;;
83055;SDS011;72881;43.514;1.510;2024-03-23T14:53:35;2.35;;;0.60;;
83055;SDS011;72881;43.514;1.510;2024-03-23T14:56:03;1.40;;;0.40;;
83055;SDS011;72881;43.514;1.510;2024-03-23T14:58:29;2.30;;;0.50;;
83055;SDS011;72881;43.514;1.510;2024-03-23T15:01:04;2.38;;;0.60;;
83055;SDS011;72881;43.514;1.510;2024-03-23T15:03:34;2.33;;;0.70;;
83055;SDS011;72881;43.514;1.510;2024-03-23T15:05:59;1.27;;;0.40;;
83055;SDS011;72881;43.514;1.510;2024-03-23T15:08:26;2.70;;;0.60;;
83055;SDS011;72881;43.514;1.510;2024-03-23T15:10:53;1.80;;;0.55;;
83055;SDS011;72881;43.514;1.510;2024-03-23T15:13:18;0.93;;;0.40;;
83055;SDS011;72881;43.514;1.510;2024-03-23T15:15:44;1.80;;;0.50;;
83055;SDS011;72881;43.514;1.510;2024-03-23T15:18:13;1.75;;;0.57;;
83055;SDS011;72881;43.514;1.510;2024-03-23T15:20:56;1.80;;;0.43;;
83055;SDS011;72881;43.514;1.510;2024-03-23T15:23:23;1.73;;;0.50;;
83055;SDS011;72881;43.514;1.510;2024-03-23T15:25:55;1.15;;;0.38;;
83055;SDS011;72881;43.514;1.510;2024-03-23T15:28:24;1.40;;;0.50;;
83055;SDS011;72881;43.514;1.510;2024-03-23T15:31:03;2.65;;;0.60;;
83055;SDS011;72881;43.514;1.510;2024-03-23T15:33:29;1.27;;;0.40;;
83055;SDS011;72881;43.514;1.510;2024-03-23T15:35:58;2.03;;;0.60;;
83055;SDS011;72881;43.514;1.510;2024-03-23T15:38:33;1.95;;;0.65;;
83055;SDS011;72881;43.514;1.510;2024-03-23T15:40:58;1.80;;;0.50;;
83055;SDS011;72881;43.514;1.510;2024-03-23T15:43:24;0.95;;;0.32;;
83055;SDS011;72881;43.514;1.510;2024-03-23T15:45:57;1.52;;;0.60;;
83055;SDS011;72881;43.514;1.510;2024-03-23T15:48:27;1.65;;;0.52;;
83055;SDS011;72881;43.514;1.510;2024-03-23T15:50:53;3.22;;;0.65;;
83055;SDS011;72881;43.514;1.510;2024-03-23T15:53:23;2.33;;;0.68;;
83055;SDS011;72881;43.514;1.510;2024-03-23T15:58:24;1.60;;;0.60;;